Time,TemperatureF,DewpointF,PressureIn,WindDirection,WindDirectionDegrees,WindSpeedMPH,WindSpeedGustMPH,Humidity,HourlyPrecipIn,Conditions,Clouds,dailyrainin,SoftwareType,DateUTC
2013-11-23 00:00:00,52.7,48.6,27.18,West,263,4.0,5.0,86,0.00,,,0.04,Wunderground v.1.15,2013-11-23 05:00:00,
2013-11-23 00:05:00,52.7,48.3,27.18,WSW,254,4.0,5.0,85,0.00,,,0.00,Wunderground v.1.15,2013-11-23 05:05:00,
2013-11-23 01:38:00,52.7,45.7,27.18,SW,225,2.0,-999.0,77,0.00,,,0.00,Wunderground v.1.15,2013-11-23 06:38:00,
2013-11-23 01:43:00,52.7,45.7,27.18,SW,225,2.0,-999.0,77,0.00,,,0.00,Wunderground v.1.15,2013-11-23 06:43:00,
2013-11-23 01:48:00,51.2,44.6,27.18,WSW,248,2.0,-999.0,78,0.00,,,0.00,Wunderground v.1.15,2013-11-23 06:48:00,
2013-11-23 01:53:00,51.2,44.6,27.18,WSW,248,2.0,-999.0,78,0.00,,,0.00,Wunderground v.1.15,2013-11-23 06:53:00,
2013-11-23 01:58:00,51.2,44.6,27.18,WSW,248,2.0,-999.0,78,0.00,,,0.00,Wunderground v.1.15,2013-11-23 06:58:00,
2013-11-23 02:03:00,51.2,44.6,27.18,WSW,248,2.0,-999.0,78,0.00,,,0.00,Wunderground v.1.15,2013-11-23 07:03:00,
2013-11-23 02:08:00,51.2,44.6,27.18,WSW,248,2.0,-999.0,78,0.00,,,0.00,Wunderground v.1.15,2013-11-23 07:08:00,
2013-11-23 02:13:00,51.2,44.6,27.18,WSW,248,2.0,-999.0,78,0.00,,,0.00,Wunderground v.1.15,2013-11-23 07:13:00,
2013-11-23 02:18:00,49.6,42.3,27.18,WSW,248,1.0,-999.0,76,0.00,,,0.00,Wunderground v.1.15,2013-11-23 07:18:00,
2013-11-23 02:23:00,49.6,42.3,27.18,WSW,248,1.0,-999.0,76,0.00,,,0.00,Wunderground v.1.15,2013-11-23 07:23:00,
2013-11-23 02:28:00,49.6,42.3,27.18,WSW,248,1.0,-999.0,76,0.00,,,0.00,Wunderground v.1.15,2013-11-23 07:28:00,
2013-11-23 02:33:00,49.6,42.3,27.18,WSW,248,1.0,-999.0,76,0.00,,,0.00,Wunderground v.1.15,2013-11-23 07:33:00,
2013-11-23 02:38:00,49.6,42.3,27.18,WSW,248,1.0,-999.0,76,0.00,,,0.00,Wunderground v.1.15,2013-11-23 07:38:00,
2013-11-23 02:43:00,49.6,42.3,27.18,WSW,248,1.0,-999.0,76,0.00,,,0.00,Wunderground v.1.15,2013-11-23 07:43:00,
2013-11-23 02:48:00,48.0,40.5,27.18,WSW,248,1.0,-999.0,75,0.00,,,0.00,Wunderground v.1.15,2013-11-23 07:48:00,
2013-11-23 02:53:00,48.0,40.5,27.18,WSW,248,1.0,-999.0,75,0.00,,,0.00,Wunderground v.1.15,2013-11-23 07:53:00,
2013-11-23 02:58:00,48.0,40.5,27.18,WSW,248,1.0,-999.0,75,0.00,,,0.00,Wunderground v.1.15,2013-11-23 07:58:00,
2013-11-23 03:03:00,48.0,40.5,27.18,WSW,248,1.0,-999.0,75,0.00,,,0.00,Wunderground v.1.15,2013-11-23 08:03:00,
2013-11-23 03:08:00,48.0,40.5,27.18,WSW,248,1.0,-999.0,75,0.00,,,0.00,Wunderground v.1.15,2013-11-23 08:08:00,
2013-11-23 03:13:00,48.0,40.5,27.18,WSW,248,1.0,-999.0,75,0.00,,,0.00,Wunderground v.1.15,2013-11-23 08:13:00,
2013-11-23 03:18:00,46.3,38.1,27.18,WSW,248,1.0,-999.0,73,0.00,,,0.00,Wunderground v.1.15,2013-11-23 08:18:00,
2013-11-23 03:23:00,46.3,38.1,27.18,WSW,248,1.0,-999.0,73,0.00,,,0.00,Wunderground v.1.15,2013-11-23 08:23:00,
2013-11-23 03:28:00,46.3,38.1,27.18,WSW,248,1.0,-999.0,73,0.00,,,0.00,Wunderground v.1.15,2013-11-23 08:28:00,
2013-11-23 03:33:00,46.3,38.1,27.18,WSW,248,1.0,-999.0,73,0.00,,,0.00,Wunderground v.1.15,2013-11-23 08:33:00,
2013-11-23 03:38:00,46.3,38.1,27.18,WSW,248,1.0,-999.0,73,0.00,,,0.00,Wunderground v.1.15,2013-11-23 08:38:00,
2013-11-23 03:43:00,46.3,38.1,27.18,WSW,248,1.0,-999.0,73,0.00,,,0.00,Wunderground v.1.15,2013-11-23 08:43:00,
2013-11-23 03:48:00,45.3,36.1,27.18,WSW,248,2.0,-999.0,70,0.00,,,0.00,Wunderground v.1.15,2013-11-23 08:48:00,
2013-11-23 03:53:00,45.3,36.1,27.18,WSW,248,2.0,-999.0,70,0.00,,,0.00,Wunderground v.1.15,2013-11-23 08:53:00,
2013-11-23 03:58:00,45.3,36.1,27.18,WSW,248,2.0,-999.0,70,0.00,,,0.00,Wunderground v.1.15,2013-11-23 08:58:00,
2013-11-23 04:03:00,45.3,36.1,27.18,WSW,248,2.0,-999.0,70,0.00,,,0.00,Wunderground v.1.15,2013-11-23 09:03:00,
2013-11-23 04:08:00,45.3,36.1,27.18,WSW,248,2.0,-999.0,70,0.00,,,0.00,Wunderground v.1.15,2013-11-23 09:08:00,
2013-11-23 04:13:00,45.3,36.1,27.18,WSW,248,2.0,-999.0,70,0.00,,,0.00,Wunderground v.1.15,2013-11-23 09:13:00,
2013-11-23 04:18:00,43.8,33.9,27.18,WSW,248,3.0,-999.0,68,0.00,,,0.00,Wunderground v.1.15,2013-11-23 09:18:00,
2013-11-23 04:23:00,43.8,33.9,27.18,WSW,248,3.0,-999.0,68,0.00,,,0.00,Wunderground v.1.15,2013-11-23 09:23:00,
2013-11-23 04:28:00,43.8,33.9,27.18,WSW,248,3.0,-999.0,68,0.00,,,0.00,Wunderground v.1.15,2013-11-23 09:28:00,
2013-11-23 04:33:00,43.8,33.9,27.18,WSW,248,3.0,-999.0,68,0.00,,,0.00,Wunderground v.1.15,2013-11-23 09:33:00,
2013-11-23 04:38:00,43.8,33.9,27.18,WSW,248,3.0,-999.0,68,0.00,,,0.00,Wunderground v.1.15,2013-11-23 09:38:00,
2013-11-23 04:43:00,43.8,33.9,27.18,WSW,248,3.0,-999.0,68,0.00,,,0.00,Wunderground v.1.15,2013-11-23 09:43:00,
2013-11-23 04:48:00,42.6,32.8,27.18,WSW,248,3.0,-999.0,68,0.00,,,0.00,Wunderground v.1.15,2013-11-23 09:48:00,
2013-11-23 04:53:00,42.6,32.8,27.18,WSW,248,3.0,-999.0,68,0.00,,,0.00,Wunderground v.1.15,2013-11-23 09:53:00,
2013-11-23 04:58:00,42.6,32.8,27.18,WSW,248,3.0,-999.0,68,0.00,,,0.00,Wunderground v.1.15,2013-11-23 09:58:00,
2013-11-23 05:03:00,42.6,32.8,27.18,WSW,248,3.0,-999.0,68,0.00,,,0.00,Wunderground v.1.15,2013-11-23 10:03:00,
2013-11-23 05:08:00,42.6,32.8,27.18,WSW,248,3.0,-999.0,68,0.00,,,0.00,Wunderground v.1.15,2013-11-23 10:08:00,
2013-11-23 05:13:00,42.6,32.8,27.18,WSW,248,3.0,-999.0,68,0.00,,,0.00,Wunderground v.1.15,2013-11-23 10:13:00,
2013-11-23 05:18:00,41.4,31.6,27.18,WSW,248,2.0,-999.0,68,0.00,,,0.00,Wunderground v.1.15,2013-11-23 10:18:00,
2013-11-23 05:23:00,41.4,31.6,27.18,WSW,248,2.0,-999.0,68,0.00,,,0.00,Wunderground v.1.15,2013-11-23 10:23:00,
2013-11-23 05:28:00,41.4,31.6,27.18,WSW,248,2.0,-999.0,68,0.00,,,0.00,Wunderground v.1.15,2013-11-23 10:28:00,
2013-11-23 05:33:00,41.4,31.6,27.18,WSW,248,2.0,-999.0,68,0.00,,,0.00,Wunderground v.1.15,2013-11-23 10:33:00,
2013-11-23 05:38:00,41.4,31.6,27.18,WSW,248,2.0,-999.0,68,0.00,,,0.00,Wunderground v.1.15,2013-11-23 10:38:00,
2013-11-23 05:43:00,41.4,31.6,27.18,WSW,248,2.0,-999.0,68,0.00,,,0.00,Wunderground v.1.15,2013-11-23 10:43:00,
2013-11-23 05:48:00,40.2,30.5,27.18,WSW,248,2.0,-999.0,68,0.00,,,0.00,Wunderground v.1.15,2013-11-23 10:48:00,
2013-11-23 05:53:00,40.2,30.5,27.18,WSW,248,2.0,-999.0,68,0.00,,,0.00,Wunderground v.1.15,2013-11-23 10:53:00,
2013-11-23 05:58:00,40.2,30.5,27.18,WSW,248,2.0,-999.0,68,0.00,,,0.00,Wunderground v.1.15,2013-11-23 10:58:00,
2013-11-23 06:03:00,40.2,30.5,27.18,WSW,248,2.0,-999.0,68,0.00,,,0.00,Wunderground v.1.15,2013-11-23 11:03:00,
2013-11-23 06:08:00,40.2,30.5,27.18,WSW,248,2.0,-999.0,68,0.00,,,0.00,Wunderground v.1.15,2013-11-23 11:08:00,
2013-11-23 06:13:00,40.2,30.5,27.18,WSW,248,2.0,-999.0,68,0.00,,,0.00,Wunderground v.1.15,2013-11-23 11:13:00,
2013-11-23 06:18:00,39.0,30.0,27.18,WSW,248,1.0,-999.0,70,0.00,,,0.00,Wunderground v.1.15,2013-11-23 11:18:00,
2013-11-23 06:23:00,39.0,30.0,27.18,WSW,248,1.0,-999.0,70,0.00,,,0.00,Wunderground v.1.15,2013-11-23 11:23:00,
2013-11-23 06:28:00,39.0,30.0,27.18,WSW,248,1.0,-999.0,70,0.00,,,0.00,Wunderground v.1.15,2013-11-23 11:28:00,
2013-11-23 06:33:00,39.0,30.0,27.18,WSW,248,1.0,-999.0,70,0.00,,,0.00,Wunderground v.1.15,2013-11-23 11:33:00,
2013-11-23 06:38:00,39.0,30.0,27.18,WSW,248,1.0,-999.0,70,0.00,,,0.00,Wunderground v.1.15,2013-11-23 11:38:00,
2013-11-23 06:43:00,39.0,30.0,27.18,WSW,248,1.0,-999.0,70,0.00,,,0.00,Wunderground v.1.15,2013-11-23 11:43:00,
2013-11-23 06:48:00,38.3,29.4,27.18,WSW,248,2.0,-999.0,70,0.00,,,0.00,Wunderground v.1.15,2013-11-23 11:48:00,
2013-11-23 06:53:00,38.3,29.4,27.18,WSW,248,2.0,-999.0,70,0.00,,,0.00,Wunderground v.1.15,2013-11-23 11:53:00,
2013-11-23 06:58:00,38.3,29.4,27.18,WSW,248,2.0,-999.0,70,0.00,,,0.00,Wunderground v.1.15,2013-11-23 11:58:00,
2013-11-23 07:03:00,38.3,29.4,27.18,WSW,248,2.0,-999.0,70,0.00,,,0.00,Wunderground v.1.15,2013-11-23 12:03:00,
2013-11-23 07:08:00,38.3,29.4,27.18,WSW,248,2.0,-999.0,70,0.00,,,0.00,Wunderground v.1.15,2013-11-23 12:08:00,
2013-11-23 07:13:00,38.3,29.4,27.18,WSW,248,2.0,-999.0,70,0.00,,,0.00,Wunderground v.1.15,2013-11-23 12:13:00,
2013-11-23 07:18:00,37.7,29.5,27.18,West,270,1.0,-999.0,72,0.00,,,0.00,Wunderground v.1.15,2013-11-23 12:18:00,
2013-11-23 07:23:00,37.7,29.5,27.18,West,270,1.0,-999.0,72,0.00,,,0.00,Wunderground v.1.15,2013-11-23 12:23:00,
2013-11-23 07:28:00,37.7,29.5,27.18,West,270,1.0,-999.0,72,0.00,,,0.00,Wunderground v.1.15,2013-11-23 12:28:00,
2013-11-23 07:33:00,37.7,29.5,27.18,West,270,1.0,-999.0,72,0.00,,,0.00,Wunderground v.1.15,2013-11-23 12:33:00,
2013-11-23 07:38:00,37.7,29.5,27.18,West,270,1.0,-999.0,72,0.00,,,0.00,Wunderground v.1.15,2013-11-23 12:38:00,
2013-11-23 07:43:00,37.7,29.5,27.18,West,270,1.0,-999.0,72,0.00,,,0.00,Wunderground v.1.15,2013-11-23 12:43:00,
2013-11-23 07:48:00,38.1,29.5,27.18,SW,225,1.0,-999.0,71,0.00,,,0.00,Wunderground v.1.15,2013-11-23 12:48:00,
2013-11-23 07:53:00,38.1,29.5,27.18,SW,225,1.0,-999.0,71,0.00,,,0.00,Wunderground v.1.15,2013-11-23 12:53:00,
2013-11-23 07:58:00,38.1,29.5,27.18,SW,225,1.0,-999.0,71,0.00,,,0.00,Wunderground v.1.15,2013-11-23 12:58:00,
2013-11-23 08:03:00,38.1,29.5,27.18,SW,225,1.0,-999.0,71,0.00,,,0.00,Wunderground v.1.15,2013-11-23 13:03:00,
2013-11-23 08:08:00,38.1,29.5,27.18,SW,225,1.0,-999.0,71,0.00,,,0.00,Wunderground v.1.15,2013-11-23 13:08:00,
2013-11-23 08:13:00,38.1,29.5,27.18,SW,225,1.0,-999.0,71,0.00,,,0.00,Wunderground v.1.15,2013-11-23 13:13:00,
2013-11-23 08:18:00,38.7,29.8,27.18,WSW,248,1.0,-999.0,70,0.00,,,0.00,Wunderground v.1.15,2013-11-23 13:18:00,
2013-11-23 08:23:00,38.7,29.8,27.18,WSW,248,1.0,-999.0,70,0.00,,,0.00,Wunderground v.1.15,2013-11-23 13:23:00,
2013-11-23 08:28:00,38.7,29.8,27.18,WSW,248,1.0,-999.0,70,0.00,,,0.00,Wunderground v.1.15,2013-11-23 13:28:00,
2013-11-23 08:33:00,38.7,29.8,27.18,WSW,248,1.0,-999.0,70,0.00,,,0.00,Wunderground v.1.15,2013-11-23 13:33:00,
2013-11-23 08:38:00,38.7,29.8,27.18,WSW,248,1.0,-999.0,70,0.00,,,0.00,Wunderground v.1.15,2013-11-23 13:38:00,
2013-11-23 08:43:00,38.7,29.8,27.18,WSW,248,1.0,-999.0,70,0.00,,,0.00,Wunderground v.1.15,2013-11-23 13:43:00,
2013-11-23 08:48:00,39.2,29.9,27.18,WSW,248,2.0,-999.0,69,0.00,,,0.00,Wunderground v.1.15,2013-11-23 13:48:00,
2013-11-23 08:53:00,39.2,29.9,27.18,WSW,248,2.0,-999.0,69,0.00,,,0.00,Wunderground v.1.15,2013-11-23 13:53:00,
2013-11-23 08:58:00,39.2,29.9,27.18,WSW,248,2.0,-999.0,69,0.00,,,0.00,Wunderground v.1.15,2013-11-23 13:58:00,
2013-11-23 09:03:00,39.2,29.9,27.18,WSW,248,2.0,-999.0,69,0.00,,,0.00,Wunderground v.1.15,2013-11-23 14:03:00,
2013-11-23 09:08:00,39.2,29.9,27.18,WSW,248,2.0,-999.0,69,0.00,,,0.00,Wunderground v.1.15,2013-11-23 14:08:00,
2013-11-23 09:13:00,39.2,29.9,27.18,WSW,248,2.0,-999.0,69,0.00,,,0.00,Wunderground v.1.15,2013-11-23 14:13:00,
2013-11-23 09:18:00,39.9,30.2,27.18,WSW,248,2.0,-999.0,68,0.00,,,0.00,Wunderground v.1.15,2013-11-23 14:18:00,
2013-11-23 09:23:00,39.9,30.2,27.18,WSW,248,2.0,-999.0,68,0.00,,,0.00,Wunderground v.1.15,2013-11-23 14:23:00,
2013-11-23 09:28:00,39.9,30.2,27.18,WSW,248,2.0,-999.0,68,0.00,,,0.00,Wunderground v.1.15,2013-11-23 14:28:00,
2013-11-23 09:40:00,40.8,30.7,27.18,NW,307,2.0,2.0,67,0.00,,,0.00,Wunderground v.1.15,2013-11-23 14:40:00,
2013-11-23 09:45:00,40.9,30.0,27.18,SW,225,2.0,2.0,65,0.00,,,0.00,Wunderground v.1.15,2013-11-23 14:45:00,
2013-11-23 09:50:00,41.0,30.5,27.18,South,173,1.0,1.0,66,0.00,,,0.00,Wunderground v.1.15,2013-11-23 14:50:00,
2013-11-23 09:55:00,41.3,30.4,27.18,SW,225,1.0,4.0,65,0.00,,,0.00,Wunderground v.1.15,2013-11-23 14:55:00,
2013-11-23 10:00:00,41.4,30.1,27.18,SW,235,2.0,7.0,64,0.00,,,0.00,Wunderground v.1.15,2013-11-23 15:00:00,
2013-11-23 10:05:00,41.5,29.8,27.18,SSW,205,2.0,7.0,63,0.00,,,0.00,Wunderground v.1.15,2013-11-23 15:05:00,
2013-11-23 10:10:00,41.8,29.7,27.18,WSW,240,1.0,1.0,62,0.00,,,0.00,Wunderground v.1.15,2013-11-23 15:10:00,
2013-11-23 10:15:00,42.0,29.9,27.18,WSW,237,2.0,2.0,62,0.00,,,0.00,Wunderground v.1.15,2013-11-23 15:15:00,
2013-11-23 10:20:00,42.2,28.9,27.18,WSW,240,2.0,2.0,59,0.00,,,0.00,Wunderground v.1.15,2013-11-23 15:20:00,
2013-11-23 10:25:00,42.2,29.3,27.18,WSW,241,3.0,3.0,60,0.00,,,0.00,Wunderground v.1.15,2013-11-23 15:25:00,
2013-11-23 10:30:00,42.3,29.0,27.18,SSW,196,3.0,3.0,59,0.00,,,0.00,Wunderground v.1.15,2013-11-23 15:30:00,
2013-11-23 10:35:00,42.6,29.7,27.18,West,261,1.0,7.0,60,0.00,,,0.00,Wunderground v.1.15,2013-11-23 15:35:00,
2013-11-23 10:40:00,42.8,29.0,27.18,West,268,3.0,7.0,58,0.00,,,0.00,Wunderground v.1.15,2013-11-23 15:40:00,
2013-11-23 10:45:00,42.7,29.8,27.18,WNW,292,3.0,7.0,60,0.00,,,0.00,Wunderground v.1.15,2013-11-23 15:45:00,
2013-11-23 10:50:00,43.1,29.3,27.18,SSW,199,1.0,1.0,58,0.00,,,0.00,Wunderground v.1.15,2013-11-23 15:50:00,
2013-11-23 10:55:00,43.4,29.2,27.18,SW,232,1.0,6.0,57,0.00,,,0.00,Wunderground v.1.15,2013-11-23 15:55:00,
2013-11-23 11:00:00,43.6,29.4,27.18,NW,305,1.0,1.0,57,0.00,,,0.00,Wunderground v.1.15,2013-11-23 16:00:00,
2013-11-23 11:05:00,43.9,30.1,27.18,WNW,285,1.0,1.0,58,0.00,,,0.00,Wunderground v.1.15,2013-11-23 16:05:00,
2013-11-23 11:10:00,44.1,29.4,27.18,WSW,241,1.0,1.0,56,0.00,,,0.00,Wunderground v.1.15,2013-11-23 16:10:00,
2013-11-23 11:15:00,44.1,29.8,27.18,West,260,2.0,6.0,57,0.00,,,0.00,Wunderground v.1.15,2013-11-23 16:15:00,
2013-11-23 11:20:00,44.4,29.2,27.18,SW,232,3.0,3.0,55,0.00,,,0.00,Wunderground v.1.15,2013-11-23 16:20:00,
2013-11-23 11:25:00,44.8,29.2,27.18,WNW,284,2.0,3.0,54,0.00,,,0.00,Wunderground v.1.15,2013-11-23 16:25:00,
2013-11-23 11:30:00,44.7,29.1,27.18,WNW,287,2.0,2.0,54,0.00,,,0.00,Wunderground v.1.15,2013-11-23 16:30:00,
2013-11-23 11:35:00,44.4,29.2,27.18,South,187,1.0,2.0,55,0.00,,,0.00,Wunderground v.1.15,2013-11-23 16:35:00,
2013-11-23 11:40:00,44.3,29.6,27.18,WSW,244,2.0,2.0,56,0.00,,,0.00,Wunderground v.1.15,2013-11-23 16:40:00,
2013-11-23 11:45:00,44.9,29.2,27.18,WSW,252,2.0,5.0,54,0.00,,,0.00,Wunderground v.1.15,2013-11-23 16:45:00,
2013-11-23 11:50:00,45.0,28.9,27.18,West,263,3.0,3.0,53,0.00,,,0.00,Wunderground v.1.15,2013-11-23 16:50:00,
2013-11-23 11:55:00,45.0,30.2,27.18,WSW,240,3.0,3.0,56,0.00,,,0.00,Wunderground v.1.15,2013-11-23 16:55:00,
2013-11-23 12:00:00,44.7,29.5,27.18,WSW,240,4.0,9.0,55,0.00,,,0.00,Wunderground v.1.15,2013-11-23 17:00:00,
2013-11-23 12:10:00,44.0,28.4,27.18,West,261,5.0,5.0,54,0.00,,,0.00,Wunderground v.1.15,2013-11-23 17:10:00,
2013-11-23 12:15:00,43.7,28.6,27.18,SW,233,4.0,5.0,55,0.00,,,0.00,Wunderground v.1.15,2013-11-23 17:15:00,
2013-11-23 12:20:00,43.7,28.1,27.18,SW,226,4.0,5.0,54,0.00,,,0.00,Wunderground v.1.15,2013-11-23 17:20:00,
2013-11-23 12:25:00,43.8,28.2,27.18,WSW,246,3.0,5.0,54,0.00,,,0.00,Wunderground v.1.15,2013-11-23 17:25:00,
2013-11-23 12:30:00,44.0,28.0,27.18,West,259,3.0,7.0,53,0.00,,,0.00,Wunderground v.1.15,2013-11-23 17:30:00,
2013-11-23 12:35:00,43.9,27.9,27.18,West,259,3.0,7.0,53,0.00,,,0.00,Wunderground v.1.15,2013-11-23 17:35:00,
2013-11-23 12:40:00,43.6,27.1,27.18,West,259,4.0,6.0,52,0.00,,,0.00,Wunderground v.1.15,2013-11-23 17:40:00,
2013-11-23 12:45:00,43.5,27.5,27.18,WSW,244,5.0,6.0,53,0.00,,,0.00,Wunderground v.1.15,2013-11-23 17:45:00,
2013-11-23 12:50:00,43.5,27.5,27.18,WSW,244,4.0,4.0,53,0.00,,,0.00,Wunderground v.1.15,2013-11-23 17:50:00,
2013-11-23 12:55:00,43.7,27.7,27.18,WNW,295,3.0,4.0,53,0.00,,,0.00,Wunderground v.1.15,2013-11-23 17:55:00,
2013-11-23 13:00:00,43.7,27.2,27.18,WSW,247,2.0,3.0,52,0.00,,,0.00,Wunderground v.1.15,2013-11-23 18:00:00,
2013-11-23 13:10:00,43.5,27.0,27.18,SW,225,2.0,4.0,52,0.00,,,0.00,Wunderground v.1.15,2013-11-23 18:10:00,
2013-11-23 13:15:00,43.2,26.3,27.18,WSW,246,4.0,4.0,51,0.00,,,0.00,Wunderground v.1.15,2013-11-23 18:15:00,
2013-11-23 13:20:00,43.2,26.7,27.18,SSW,209,4.0,4.0,52,0.00,,,0.00,Wunderground v.1.15,2013-11-23 18:20:00,
2013-11-23 13:25:00,43.7,27.2,27.18,WSW,243,3.0,4.0,52,0.00,,,0.00,Wunderground v.1.15,2013-11-23 18:25:00,
2013-11-23 13:30:00,44.0,27.0,27.18,WSW,250,3.0,3.0,51,0.00,,,0.00,Wunderground v.1.15,2013-11-23 18:30:00,
2013-11-23 13:35:00,43.9,26.9,27.18,SW,234,3.0,9.0,51,0.00,,,0.00,Wunderground v.1.15,2013-11-23 18:35:00,
2013-11-23 13:40:00,43.5,26.6,27.18,SW,228,5.0,7.0,51,0.00,,,0.00,Wunderground v.1.15,2013-11-23 18:40:00,
2013-11-23 13:45:00,43.3,26.4,27.18,SW,233,6.0,7.0,51,0.00,,,0.00,Wunderground v.1.15,2013-11-23 18:45:00,
2013-11-23 13:50:00,43.2,26.7,27.18,SW,234,6.0,6.0,52,0.00,,,0.00,Wunderground v.1.15,2013-11-23 18:50:00,
2013-11-23 13:55:00,43.3,26.8,27.18,SW,235,4.0,6.0,52,0.00,,,0.00,Wunderground v.1.15,2013-11-23 18:55:00,
2013-11-23 14:00:00,43.3,26.8,27.18,WSW,258,4.0,7.0,52,0.00,,,0.00,Wunderground v.1.15,2013-11-23 19:00:00,
2013-11-23 14:05:00,43.3,27.3,27.18,West,264,4.0,7.0,53,0.00,,,0.00,Wunderground v.1.15,2013-11-23 19:05:00,
2013-11-23 14:10:00,43.3,27.3,27.18,WSW,248,3.0,3.0,53,0.00,,,0.00,Wunderground v.1.15,2013-11-23 19:10:00,
2013-11-23 14:15:00,43.3,27.8,27.18,West,259,3.0,5.0,54,0.00,,,0.00,Wunderground v.1.15,2013-11-23 19:15:00,
2013-11-23 14:20:00,43.4,27.8,27.18,WSW,238,3.0,5.0,54,0.00,,,0.00,Wunderground v.1.15,2013-11-23 19:20:00,
2013-11-23 14:25:00,43.4,26.9,27.18,WSW,249,5.0,5.0,52,0.00,,,0.00,Wunderground v.1.15,2013-11-23 19:25:00,
2013-11-23 14:30:00,43.4,26.9,27.18,West,259,5.0,8.0,52,0.00,,,0.00,Wunderground v.1.15,2013-11-23 19:30:00,
2013-11-23 14:35:00,43.4,27.4,27.18,SW,227,5.0,8.0,53,0.00,,,0.00,Wunderground v.1.15,2013-11-23 19:35:00,
2013-11-23 14:40:00,43.3,27.8,27.18,WSW,250,5.0,5.0,54,0.00,,,0.00,Wunderground v.1.15,2013-11-23 19:40:00,
2013-11-23 14:45:00,43.3,26.8,27.18,WSW,254,5.0,6.0,52,0.00,,,0.00,Wunderground v.1.15,2013-11-23 19:45:00,
2013-11-23 14:50:00,43.2,27.2,27.18,West,260,5.0,5.0,53,0.00,,,0.00,Wunderground v.1.15,2013-11-23 19:50:00,
2013-11-23 14:55:00,43.1,27.1,27.18,WSW,237,4.0,5.0,53,0.00,,,0.00,Wunderground v.1.15,2013-11-23 19:55:00,
2013-11-23 15:00:00,43.1,26.7,27.18,WSW,246,4.0,7.0,52,0.00,,,0.00,Wunderground v.1.15,2013-11-23 20:00:00,
2013-11-23 15:10:00,43.0,27.0,27.18,WSW,254,4.0,4.0,53,0.00,,,0.00,Wunderground v.1.15,2013-11-23 20:10:00,
2013-11-23 15:15:00,43.0,26.6,27.18,SW,235,4.0,4.0,52,0.00,,,0.00,Wunderground v.1.15,2013-11-23 20:15:00,
2013-11-23 15:20:00,43.0,27.0,27.18,SW,227,4.0,5.0,53,0.00,,,0.00,Wunderground v.1.15,2013-11-23 20:20:00,
2013-11-23 15:25:00,43.1,27.6,27.18,SW,227,4.0,5.0,54,0.00,,,0.00,Wunderground v.1.15,2013-11-23 20:25:00,
2013-11-23 15:30:00,43.4,27.8,27.18,SW,236,3.0,3.0,54,0.00,,,0.00,Wunderground v.1.15,2013-11-23 20:30:00,
2013-11-23 15:35:00,43.3,27.3,27.18,WSW,242,4.0,4.0,53,0.00,,,0.00,Wunderground v.1.15,2013-11-23 20:35:00,
2013-11-23 15:40:00,43.0,27.0,27.18,WSW,250,4.0,5.0,53,0.00,,,0.00,Wunderground v.1.15,2013-11-23 20:40:00,
2013-11-23 15:45:00,43.0,27.5,27.18,West,271,3.0,5.0,54,0.00,,,0.00,Wunderground v.1.15,2013-11-23 20:45:00,
2013-11-23 15:50:00,43.2,27.2,27.18,WNW,301,3.0,3.0,53,0.00,,,0.00,Wunderground v.1.15,2013-11-23 20:50:00,
2013-11-23 15:55:00,43.0,27.0,27.18,WSW,249,4.0,6.0,53,0.00,,,0.00,Wunderground v.1.15,2013-11-23 20:55:00,
2013-11-23 16:00:00,42.9,26.9,27.18,WSW,256,5.0,5.0,53,0.00,,,0.00,Wunderground v.1.15,2013-11-23 21:00:00,
2013-11-23 16:05:00,42.7,27.2,27.18,WSW,240,5.0,5.0,54,0.00,,,0.00,Wunderground v.1.15,2013-11-23 21:05:00,
2013-11-23 16:10:00,42.4,27.4,27.18,WSW,246,4.0,4.0,55,0.00,,,0.00,Wunderground v.1.15,2013-11-23 21:10:00,
2013-11-23 16:15:00,42.1,27.5,27.18,SW,229,2.0,7.0,56,0.00,,,0.00,Wunderground v.1.15,2013-11-23 21:15:00,
2013-11-23 16:20:00,41.8,26.8,27.18,WSW,238,2.0,2.0,55,0.00,,,0.00,Wunderground v.1.15,2013-11-23 21:20:00,
2013-11-23 16:25:00,41.7,27.1,27.18,West,266,2.0,2.0,56,0.00,,,0.00,Wunderground v.1.15,2013-11-23 21:25:00,
2013-11-23 16:30:00,41.7,26.7,27.18,West,277,2.0,2.0,55,0.00,,,0.00,Wunderground v.1.15,2013-11-23 21:30:00,
2013-11-23 16:35:00,41.8,26.8,27.18,West,259,3.0,3.0,55,0.00,,,0.00,Wunderground v.1.15,2013-11-23 21:35:00,
2013-11-23 16:40:00,41.6,27.1,27.18,West,266,2.0,2.0,56,0.00,,,0.00,Wunderground v.1.15,2013-11-23 21:40:00,
2013-11-23 16:45:00,41.3,26.8,27.18,West,266,1.0,2.0,56,0.00,,,0.00,Wunderground v.1.15,2013-11-23 21:45:00,
2013-11-23 16:50:00,41.1,27.0,27.18,West,266,0.0,0.0,57,0.00,,,0.00,Wunderground v.1.15,2013-11-23 21:50:00,
2013-11-23 16:55:00,40.9,26.8,27.18,West,269,0.0,4.0,57,0.00,,,0.00,Wunderground v.1.15,2013-11-23 21:55:00,
2013-11-23 17:00:00,41.0,26.1,27.18,WSW,252,1.0,6.0,55,0.00,,,0.00,Wunderground v.1.15,2013-11-23 22:00:00,
2013-11-23 17:05:00,41.1,25.7,27.18,West,264,3.0,6.0,54,0.00,,,0.00,Wunderground v.1.15,2013-11-23 22:05:00,
2013-11-23 17:10:00,41.1,25.3,27.18,WSW,249,3.0,3.0,53,0.00,,,0.00,Wunderground v.1.15,2013-11-23 22:10:00,
2013-11-23 17:15:00,41.2,24.9,27.18,West,275,4.0,7.0,52,0.00,,,0.00,Wunderground v.1.15,2013-11-23 22:15:00,
2013-11-23 17:20:00,41.3,24.5,27.18,WSW,258,6.0,10.0,51,0.00,,,0.00,Wunderground v.1.15,2013-11-23 22:20:00,
2013-11-23 17:25:00,41.5,24.2,27.18,SW,229,7.0,10.0,50,0.00,,,0.00,Wunderground v.1.15,2013-11-23 22:25:00,
2013-11-23 17:30:00,41.4,24.1,27.18,West,279,7.0,7.0,50,0.00,,,0.00,Wunderground v.1.15,2013-11-23 22:30:00,
2013-11-23 17:35:00,41.2,23.9,27.18,West,268,5.0,7.0,50,0.00,,,0.00,Wunderground v.1.15,2013-11-23 22:35:00,
2013-11-23 17:40:00,41.0,23.8,27.18,WSW,248,5.0,6.0,50,0.00,,,0.00,Wunderground v.1.15,2013-11-23 22:40:00,
2013-11-23 17:45:00,40.9,23.2,27.18,WNW,288,5.0,7.0,49,0.00,,,0.00,Wunderground v.1.15,2013-11-23 22:45:00,
2013-11-23 17:50:00,40.9,23.2,27.18,WSW,256,5.0,5.0,49,0.00,,,0.00,Wunderground v.1.15,2013-11-23 22:50:00,
2013-11-23 17:55:00,40.7,23.5,27.18,WNW,288,5.0,7.0,50,0.00,,,0.00,Wunderground v.1.15,2013-11-23 22:55:00,
2013-11-23 18:00:00,40.6,23.4,27.18,SW,233,4.0,7.0,50,0.00,,,0.00,Wunderground v.1.15,2013-11-23 23:00:00,
2013-11-23 18:05:00,40.4,23.2,27.18,WSW,240,3.0,7.0,50,0.00,,,0.00,Wunderground v.1.15,2013-11-23 23:05:00,
2013-11-23 18:10:00,40.3,23.1,27.18,WSW,257,3.0,3.0,50,0.00,,,0.00,Wunderground v.1.15,2013-11-23 23:10:00,
2013-11-23 18:15:00,40.4,23.7,27.18,SW,234,4.0,7.0,51,0.00,,,0.00,Wunderground v.1.15,2013-11-23 23:15:00,
2013-11-23 18:20:00,40.5,23.3,27.18,WSW,250,4.0,4.0,50,0.00,,,0.00,Wunderground v.1.15,2013-11-23 23:20:00,
2013-11-23 18:25:00,40.5,23.8,27.18,West,264,4.0,10.0,51,0.00,,,0.00,Wunderground v.1.15,2013-11-23 23:25:00,
2013-11-23 18:30:00,40.4,23.7,27.18,SW,233,4.0,7.0,51,0.00,,,0.00,Wunderground v.1.15,2013-11-23 23:30:00,
2013-11-23 18:35:00,40.3,24.1,27.18,West,261,5.0,14.0,52,0.00,,,0.00,Wunderground v.1.15,2013-11-23 23:35:00,
2013-11-23 18:40:00,40.2,24.0,27.18,WNW,287,6.0,6.0,52,0.00,,,0.00,Wunderground v.1.15,2013-11-23 23:40:00,
2013-11-23 18:45:00,39.9,24.6,27.18,WSW,250,4.0,6.0,54,0.00,,,0.00,Wunderground v.1.15,2013-11-23 23:45:00,
2013-11-23 18:50:00,39.5,24.7,27.18,WSW,242,1.0,5.0,55,0.00,,,0.00,Wunderground v.1.15,2013-11-23 23:50:00,
2013-11-23 18:55:00,39.1,25.6,27.18,West,260,2.0,5.0,58,0.00,,,0.00,Wunderground v.1.15,2013-11-23 23:55:00,
2013-11-23 19:00:00,38.8,25.3,27.18,WSW,254,2.0,4.0,58,0.00,,,0.00,Wunderground v.1.15,2013-11-24 00:00:00,
2013-11-23 19:05:00,38.7,24.8,27.18,SW,230,3.0,10.0,57,0.00,,,0.00,Wunderground v.1.15,2013-11-24 00:05:00,
2013-11-23 19:10:00,38.7,24.8,27.18,WNW,302,5.0,5.0,57,0.00,,,0.00,Wunderground v.1.15,2013-11-24 00:10:00,
2013-11-23 19:15:00,38.5,24.1,27.18,SW,234,5.0,5.0,56,0.00,,,0.00,Wunderground v.1.15,2013-11-24 00:15:00,
2013-11-23 19:20:00,38.3,23.5,27.18,WSW,241,5.0,11.0,55,0.00,,,0.00,Wunderground v.1.15,2013-11-24 00:20:00,
2013-11-23 19:25:00,38.3,23.5,27.18,SW,233,5.0,11.0,55,0.00,,,0.00,Wunderground v.1.15,2013-11-24 00:25:00,
2013-11-23 19:30:00,38.0,23.7,27.18,WSW,257,4.0,4.0,56,0.00,,,0.00,Wunderground v.1.15,2013-11-24 00:30:00,
2013-11-23 19:35:00,37.8,23.5,27.18,WSW,245,2.0,7.0,56,0.00,,,0.00,Wunderground v.1.15,2013-11-24 00:35:00,
2013-11-23 19:40:00,37.7,23.4,27.18,West,277,3.0,3.0,56,0.00,,,0.00,Wunderground v.1.15,2013-11-24 00:40:00,
2013-11-23 19:45:00,37.5,23.2,27.18,West,260,3.0,4.0,56,0.00,,,0.00,Wunderground v.1.15,2013-11-24 00:45:00,
2013-11-23 19:50:00,37.3,23.0,27.18,WSW,248,4.0,4.0,56,0.00,,,0.00,Wunderground v.1.15,2013-11-24 00:50:00,
2013-11-23 19:55:00,37.1,22.8,27.18,NNW,333,4.0,10.0,56,0.00,,,0.00,Wunderground v.1.15,2013-11-24 00:55:00,
2013-11-23 20:00:00,37.0,22.7,27.18,WSW,255,5.0,5.0,56,0.00,,,0.00,Wunderground v.1.15,2013-11-24 01:00:00,
2013-11-23 20:05:00,37.0,23.2,27.18,West,272,6.0,6.0,57,0.00,,,0.00,Wunderground v.1.15,2013-11-24 01:05:00,
2013-11-23 20:10:00,36.8,24.2,27.18,WSW,239,4.0,4.0,60,0.00,,,0.00,Wunderground v.1.15,2013-11-24 01:10:00,
2013-11-23 20:15:00,35.9,25.3,27.18,ESE,116,2.0,4.0,65,0.00,,,0.00,Wunderground v.1.15,2013-11-24 01:15:00,
2013-11-23 20:20:00,35.0,25.1,27.18,NNW,338,1.0,1.0,67,0.00,,,0.00,Wunderground v.1.15,2013-11-24 01:20:00,
2013-11-23 20:25:00,34.2,24.7,27.18,WNW,284,1.0,1.0,68,0.00,,,0.00,Wunderground v.1.15,2013-11-24 01:25:00,
2013-11-23 20:30:00,33.8,24.4,27.18,WSW,238,1.0,5.0,68,0.00,,,0.00,Wunderground v.1.15,2013-11-24 01:30:00,
2013-11-23 20:35:00,33.6,24.2,27.18,SSW,198,1.0,5.0,68,0.00,,,0.00,Wunderground v.1.15,2013-11-24 01:35:00,
2013-11-23 20:40:00,33.6,24.2,27.18,SW,231,1.0,6.0,68,0.00,,,0.00,Wunderground v.1.15,2013-11-24 01:40:00,
2013-11-23 20:45:00,33.5,24.4,27.18,SW,227,2.0,6.0,69,0.00,,,0.00,Wunderground v.1.15,2013-11-24 01:45:00,
2013-11-23 20:50:00,33.3,24.6,27.18,SW,235,1.0,1.0,70,0.00,,,0.00,Wunderground v.1.15,2013-11-24 01:50:00,
2013-11-23 20:55:00,33.2,24.5,27.18,WSW,252,1.0,1.0,70,0.00,,,0.00,Wunderground v.1.15,2013-11-24 01:55:00,
2013-11-23 21:00:00,33.1,24.4,27.18,WSW,252,1.0,1.0,70,0.00,,,0.00,Wunderground v.1.15,2013-11-24 02:00:00,
2013-11-23 21:10:00,32.8,24.1,27.18,WSW,238,1.0,2.0,70,0.00,,,0.00,Wunderground v.1.15,2013-11-24 02:10:00,
2013-11-23 21:15:00,32.7,24.0,27.18,West,261,1.0,2.0,70,0.00,,,0.00,Wunderground v.1.15,2013-11-24 02:15:00,
2013-11-23 21:20:00,32.6,24.2,27.18,WSW,257,1.0,2.0,71,0.00,,,0.00,Wunderground v.1.15,2013-11-24 02:20:00,
2013-11-23 21:25:00,32.5,24.5,27.18,WSW,257,1.0,2.0,72,0.00,,,0.00,Wunderground v.1.15,2013-11-24 02:25:00,
2013-11-23 21:30:00,32.3,24.6,27.18,WSW,257,1.0,1.0,73,0.00,,,0.00,Wunderground v.1.15,2013-11-24 02:30:00,
2013-11-23 21:35:00,32.4,24.7,27.18,WSW,246,1.0,1.0,73,0.00,,,0.00,Wunderground v.1.15,2013-11-24 02:35:00,
2013-11-23 21:40:00,32.4,24.0,27.18,WSW,254,2.0,4.0,71,0.00,,,0.00,Wunderground v.1.15,2013-11-24 02:40:00,
2013-11-23 21:45:00,32.5,23.8,27.18,WSW,248,2.0,4.0,70,0.00,,,0.00,Wunderground v.1.15,2013-11-24 02:45:00,
2013-11-23 21:55:00,32.8,21.2,27.18,WSW,241,2.0,2.0,62,0.00,,,0.00,Wunderground v.1.15,2013-11-24 02:55:00,
2013-11-23 22:00:00,32.9,20.5,27.18,West,268,2.0,2.0,60,0.00,,,0.00,Wunderground v.1.15,2013-11-24 03:00:00,
2013-11-23 22:05:00,33.0,22.1,27.18,SW,235,1.0,2.0,64,0.00,,,0.00,Wunderground v.1.15,2013-11-24 03:05:00,
2013-11-23 22:10:00,33.0,22.5,27.18,SW,227,2.0,4.0,65,0.00,,,0.00,Wunderground v.1.15,2013-11-24 03:10:00,
2013-11-23 22:15:00,32.7,21.9,27.18,SSW,210,4.0,5.0,64,0.00,,,0.00,Wunderground v.1.15,2013-11-24 03:15:00,
2013-11-23 22:20:00,32.3,21.1,27.18,West,264,3.0,3.0,63,0.00,,,0.00,Wunderground v.1.15,2013-11-24 03:20:00,
2013-11-23 22:25:00,32.0,20.8,27.18,WNW,292,1.0,3.0,63,0.00,,,0.00,Wunderground v.1.15,2013-11-24 03:25:00,
2013-11-23 22:30:00,31.8,20.3,27.18,WSW,246,2.0,2.0,62,0.00,,,0.00,Wunderground v.1.15,2013-11-24 03:30:00,
2013-11-23 22:35:00,31.6,20.4,27.18,SW,223,1.0,2.0,63,0.00,,,0.00,Wunderground v.1.15,2013-11-24 03:35:00,
2013-11-23 22:40:00,31.2,20.1,27.18,WSW,243,1.0,4.0,63,0.00,,,0.00,Wunderground v.1.15,2013-11-24 03:40:00,
2013-11-23 22:45:00,30.9,20.1,27.18,NNW,329,1.0,4.0,64,0.00,,,0.00,Wunderground v.1.15,2013-11-24 03:45:00,
2013-11-23 22:50:00,30.6,19.5,27.18,WSW,247,1.0,5.0,63,0.00,,,0.00,Wunderground v.1.15,2013-11-24 03:50:00,
2013-11-23 22:55:00,30.4,19.3,27.18,SW,236,1.0,5.0,63,0.00,,,0.00,Wunderground v.1.15,2013-11-24 03:55:00,
2013-11-23 23:00:00,30.3,18.8,27.18,WSW,250,1.0,3.0,62,0.00,,,0.00,Wunderground v.1.15,2013-11-24 04:00:00,
2013-11-23 23:10:00,30.1,19.0,27.18,WSW,244,1.0,1.0,63,0.00,,,0.00,Wunderground v.1.15,2013-11-24 04:10:00,
2013-11-23 23:15:00,30.1,19.0,27.18,WSW,243,1.0,1.0,63,0.00,,,0.00,Wunderground v.1.15,2013-11-24 04:15:00,
2013-11-23 23:20:00,30.0,19.3,27.18,WSW,243,0.0,0.0,64,0.00,,,0.00,Wunderground v.1.15,2013-11-24 04:20:00,
2013-11-23 23:25:00,29.9,19.2,27.18,WSW,243,0.0,0.0,64,0.00,,,0.00,Wunderground v.1.15,2013-11-24 04:25:00,
2013-11-23 23:30:00,30.1,19.4,27.18,WSW,243,1.0,1.0,64,0.00,,,0.00,Wunderground v.1.15,2013-11-24 04:30:00,
2013-11-23 23:35:00,30.3,19.6,27.18,WSW,253,1.0,1.0,64,0.00,,,0.00,Wunderground v.1.15,2013-11-24 04:35:00,
2013-11-23 23:40:00,30.3,19.2,27.18,WSW,253,1.0,3.0,63,0.00,,,0.00,Wunderground v.1.15,2013-11-24 04:40:00,
2013-11-23 23:45:00,30.2,18.7,27.18,West,265,0.0,3.0,62,0.00,,,0.00,Wunderground v.1.15,2013-11-24 04:45:00,
2013-11-23 23:55:00,30.0,16.6,27.18,WSW,252,1.0,1.0,57,0.00,,,0.00,Wunderground v.1.15,2013-11-24 04:55:00,